createdAt,value
2022-12-31T00:00:29.419Z,13.94
2022-12-31T00:01:29.672Z,13.92
2022-12-31T00:02:30.066Z,13.95
2022-12-31T00:03:30.375Z,13.94
2022-12-31T00:04:30.478Z,13.95
2022-12-31T00:05:30.815Z,13.96
2022-12-31T00:06:31.141Z,13.96
2022-12-31T00:08:10.973Z,13.96
2022-12-31T00:09:11.255Z,13.96
2022-12-31T00:10:11.632Z,13.96
2022-12-31T00:11:11.885Z,13.91
2022-12-31T00:12:12.207Z,13.89
2022-12-31T00:13:12.482Z,13.94
2022-12-31T00:14:12.802Z,13.89
2022-12-31T00:15:13.121Z,13.88
2022-12-31T00:16:13.417Z,13.84
2022-12-31T00:17:13.791Z,13.80
2022-12-31T00:18:14.058Z,13.83
2022-12-31T00:19:14.403Z,13.80
2022-12-31T00:20:14.700Z,13.76
2022-12-31T00:21:14.881Z,13.74
2022-12-31T00:22:15.110Z,13.76
2022-12-31T00:23:15.390Z,13.74
2022-12-31T00:24:15.656Z,13.73
2022-12-31T00:25:16.132Z,13.69
2022-12-31T00:26:16.251Z,13.67
2022-12-31T00:27:16.393Z,13.65
2022-12-31T00:28:16.783Z,13.67
2022-12-31T00:29:17.055Z,13.69
2022-12-31T00:30:17.283Z,13.63
2022-12-31T00:31:17.709Z,13.62
2022-12-31T00:32:17.859Z,13.59
2022-12-31T00:33:18.136Z,13.65
2022-12-31T00:34:18.389Z,13.62
2022-12-31T00:35:18.671Z,13.61
2022-12-31T00:36:19.014Z,13.61
2022-12-31T00:37:19.247Z,13.62
2022-12-31T00:38:19.556Z,13.62
2022-12-31T00:39:19.824Z,13.62
2022-12-31T00:40:20.163Z,13.61
2022-12-31T00:41:20.480Z,13.58
2022-12-31T00:42:20.782Z,13.56
2022-12-31T00:43:21.088Z,13.56
2022-12-31T00:44:21.395Z,13.56
2022-12-31T00:45:21.615Z,13.56
2022-12-31T00:46:22.023Z,13.56
2022-12-31T00:47:22.187Z,13.58
2022-12-31T00:48:22.517Z,13.59
2022-12-31T00:49:22.763Z,13.58
2022-12-31T00:50:23.056Z,13.56
2022-12-31T00:51:23.388Z,13.58
2022-12-31T00:52:23.698Z,13.59
2022-12-31T00:53:23.978Z,13.58
2022-12-31T00:54:24.721Z,13.59
2022-12-31T00:55:24.601Z,13.58
2022-12-31T00:56:24.914Z,13.61
2022-12-31T00:57:25.156Z,13.61
2022-12-31T00:58:25.488Z,13.61
2022-12-31T00:59:25.841Z,13.63
2022-12-31T01:00:26.037Z,13.62
2022-12-31T01:01:26.497Z,13.62
2022-12-31T01:02:26.785Z,13.65
2022-12-31T01:03:26.948Z,13.65
2022-12-31T01:04:27.183Z,13.65
2022-12-31T01:05:27.358Z,13.69
2022-12-31T01:06:27.732Z,13.71
2022-12-31T01:07:27.831Z,13.74
2022-12-31T01:08:28.240Z,13.76
2022-12-31T01:09:28.351Z,13.79
2022-12-31T01:10:28.655Z,13.79
2022-12-31T01:11:28.873Z,13.81
2022-12-31T01:12:29.186Z,13.81
2022-12-31T01:13:29.469Z,13.83
2022-12-31T01:14:29.812Z,13.84
2022-12-31T01:15:30.148Z,13.88
2022-12-31T01:16:30.352Z,13.89
2022-12-31T01:17:30.718Z,13.89
2022-12-31T01:18:30.895Z,13.88
2022-12-31T01:19:32.733Z,13.94
2022-12-31T01:20:31.507Z,13.92
2022-12-31T01:21:31.816Z,13.92
2022-12-31T01:22:32.188Z,13.94
2022-12-31T01:23:32.341Z,13.96
2022-12-31T01:24:32.653Z,13.96
2022-12-31T01:25:32.956Z,13.95
2022-12-31T01:26:33.373Z,13.99
2022-12-31T01:27:33.599Z,13.99
2022-12-31T01:28:33.806Z,14.02
2022-12-31T01:29:34.164Z,14.02
2022-12-31T01:30:34.328Z,14.02
2022-12-31T01:31:34.540Z,14.01
2022-12-31T01:32:34.893Z,14.04
2022-12-31T01:33:35.177Z,14.02
2022-12-31T01:34:35.548Z,14.09
2022-12-31T01:35:35.860Z,14.09
2022-12-31T01:36:36.143Z,14.10
2022-12-31T01:37:36.445Z,14.13
2022-12-31T01:38:36.748Z,14.13
2022-12-31T01:39:37.045Z,14.17
2022-12-31T01:40:37.349Z,14.16
2022-12-31T01:41:37.621Z,14.20
2022-12-31T01:42:37.921Z,14.21
2022-12-31T01:43:38.160Z,14.21
2022-12-31T01:44:38.479Z,14.21
2022-12-31T01:45:38.798Z,14.21
2022-12-31T01:46:39.122Z,14.21
2022-12-31T01:47:40.279Z,14.28
2022-12-31T01:48:39.693Z,14.31
2022-12-31T01:49:39.913Z,14.32
2022-12-31T01:50:40.268Z,14.34
2022-12-31T01:51:40.538Z,14.31
2022-12-31T01:52:40.958Z,14.35
2022-12-31T01:53:41.203Z,14.37
2022-12-31T01:54:41.443Z,14.37
2022-12-31T01:55:41.761Z,14.37
2022-12-31T01:56:42.024Z,14.37
2022-12-31T01:57:42.346Z,14.39
2022-12-31T01:58:42.649Z,14.39
2022-12-31T01:59:42.941Z,14.43
2022-12-31T02:00:43.258Z,14.47
2022-12-31T02:01:43.653Z,14.49
2022-12-31T02:02:43.902Z,14.44
2022-12-31T02:03:44.056Z,14.50
2022-12-31T02:04:44.367Z,14.50
2022-12-31T02:05:44.697Z,14.54
2022-12-31T02:06:45.020Z,14.62
2022-12-31T02:07:45.306Z,14.68
2022-12-31T02:08:45.584Z,14.72
2022-12-31T02:09:45.894Z,14.80
2022-12-31T02:10:46.183Z,14.84
2022-12-31T02:11:46.540Z,14.91
2022-12-31T02:12:46.763Z,14.93
2022-12-31T02:13:47.053Z,15.01
2022-12-31T02:14:47.408Z,15.06
2022-12-31T02:15:47.777Z,15.11
2022-12-31T02:16:47.956Z,15.09
2022-12-31T02:17:48.215Z,15.15
2022-12-31T02:18:48.491Z,15.17
2022-12-31T02:19:48.760Z,15.20
2022-12-31T02:20:49.103Z,15.21
2022-12-31T02:21:49.352Z,15.19
2022-12-31T02:22:49.663Z,15.21
2022-12-31T02:23:49.957Z,15.23
2022-12-31T02:24:50.295Z,15.20
2022-12-31T02:25:50.588Z,15.17
2022-12-31T02:26:50.929Z,15.15
2022-12-31T02:27:51.233Z,15.17
2022-12-31T02:28:51.589Z,15.19
2022-12-31T02:29:51.941Z,15.17
2022-12-31T02:30:52.163Z,15.19
2022-12-31T02:31:52.344Z,15.19
2022-12-31T02:32:52.710Z,15.17
2022-12-31T02:33:52.972Z,15.17
2022-12-31T02:34:53.308Z,15.19
2022-12-31T02:35:53.644Z,15.21
2022-12-31T02:36:53.843Z,15.20
2022-12-31T02:37:54.079Z,15.24
2022-12-31T02:38:54.388Z,15.27
2022-12-31T02:39:54.692Z,15.26
2022-12-31T02:40:55.011Z,15.30
2022-12-31T02:41:55.282Z,15.26
2022-12-31T02:42:55.950Z,15.33
2022-12-31T02:43:55.927Z,15.31
2022-12-31T02:44:56.211Z,15.31
2022-12-31T02:45:56.944Z,15.31
2022-12-31T02:46:56.873Z,15.33
2022-12-31T02:47:57.055Z,15.31
2022-12-31T02:48:57.350Z,15.30
2022-12-31T02:49:57.677Z,15.31
2022-12-31T02:50:57.893Z,15.36
2022-12-31T02:51:58.199Z,15.41
2022-12-31T02:52:58.457Z,15.42
2022-12-31T02:53:58.750Z,15.45
2022-12-31T02:54:59.057Z,15.42
2022-12-31T02:55:59.392Z,15.45
2022-12-31T02:56:59.611Z,15.41
2022-12-31T02:57:59.853Z,15.41
2022-12-31T02:59:00.195Z,15.41
2022-12-31T03:00:00.562Z,15.41
2022-12-31T03:01:00.817Z,15.38
2022-12-31T03:02:01.164Z,15.36
2022-12-31T03:03:01.319Z,15.36
2022-12-31T03:04:01.599Z,15.38
2022-12-31T03:05:01.904Z,15.39
2022-12-31T03:06:02.219Z,15.38
2022-12-31T03:07:02.506Z,15.33
2022-12-31T03:08:02.837Z,15.35
2022-12-31T03:09:03.515Z,15.35
2022-12-31T03:10:03.375Z,15.35
2022-12-31T03:11:03.694Z,15.31
2022-12-31T03:12:03.980Z,15.33
2022-12-31T03:13:04.332Z,15.33
2022-12-31T03:14:04.651Z,15.38
2022-12-31T03:15:04.877Z,15.39
2022-12-31T03:16:05.180Z,15.41
2022-12-31T03:17:05.512Z,15.39
2022-12-31T03:18:05.821Z,15.41
2022-12-31T03:19:06.168Z,15.42
2022-12-31T03:20:06.385Z,15.43
2022-12-31T03:21:06.603Z,15.45
2022-12-31T03:22:06.923Z,15.45
2022-12-31T03:23:07.193Z,15.43
2022-12-31T03:24:07.472Z,15.42
2022-12-31T03:25:07.811Z,15.45
2022-12-31T03:26:08.090Z,15.43
2022-12-31T03:27:08.385Z,15.43
2022-12-31T03:28:08.704Z,15.42
2022-12-31T03:29:09.078Z,15.42
2022-12-31T03:30:09.274Z,15.45
2022-12-31T03:31:09.690Z,15.46
2022-12-31T03:32:09.804Z,15.48
2022-12-31T03:33:10.148Z,15.46
2022-12-31T03:34:10.435Z,15.45
2022-12-31T03:35:10.724Z,15.42
2022-12-31T03:36:11.008Z,15.39
2022-12-31T03:37:11.343Z,15.42
2022-12-31T03:38:11.704Z,15.42
2022-12-31T03:39:11.964Z,15.43
2022-12-31T03:40:12.247Z,15.42
2022-12-31T03:41:12.613Z,15.45
2022-12-31T03:42:12.892Z,15.45
2022-12-31T03:43:13.261Z,15.46
2022-12-31T03:44:13.433Z,15.48
2022-12-31T03:45:13.720Z,15.42
2022-12-31T03:46:14.096Z,15.43
2022-12-31T03:47:14.307Z,15.43
2022-12-31T03:48:14.621Z,15.46
2022-12-31T03:49:14.920Z,15.45
2022-12-31T03:50:15.199Z,15.46
2022-12-31T03:51:15.516Z,15.48
2022-12-31T03:52:15.832Z,15.48
2022-12-31T03:53:16.064Z,15.49
2022-12-31T03:54:16.348Z,15.48
2022-12-31T03:55:16.717Z,15.49
2022-12-31T03:56:17.075Z,15.51
2022-12-31T03:57:17.285Z,15.52
2022-12-31T03:58:17.565Z,15.51
2022-12-31T03:59:17.877Z,15.54
2022-12-31T04:00:18.236Z,15.57
2022-12-31T04:01:18.596Z,15.59
2022-12-31T04:02:22.021Z,15.60
2022-12-31T04:03:20.130Z,15.64
2022-12-31T04:04:19.378Z,15.66
2022-12-31T04:05:19.580Z,15.67
2022-12-31T04:06:19.852Z,15.66
2022-12-31T04:07:20.187Z,15.67
2022-12-31T04:08:20.539Z,15.63
2022-12-31T04:09:20.813Z,15.64
2022-12-31T04:10:21.159Z,15.63
2022-12-31T04:11:21.438Z,15.63
2022-12-31T04:12:21.718Z,15.64
2022-12-31T04:13:22.081Z,15.67
2022-12-31T04:14:22.338Z,15.72
2022-12-31T04:15:22.707Z,15.72
2022-12-31T04:16:23.029Z,15.74
2022-12-31T04:17:23.410Z,15.72
2022-12-31T04:18:23.562Z,15.75
2022-12-31T04:19:23.866Z,15.75
2022-12-31T04:20:24.146Z,15.74
2022-12-31T04:21:25.970Z,15.74
2022-12-31T04:22:24.743Z,15.76
2022-12-31T04:23:25.024Z,15.78
2022-12-31T04:24:25.342Z,15.78
2022-12-31T04:25:25.664Z,15.81
2022-12-31T04:26:25.928Z,15.84
2022-12-31T04:27:26.265Z,15.89
2022-12-31T04:28:26.533Z,15.96
2022-12-31T04:29:26.852Z,15.97
2022-12-31T04:30:27.155Z,15.99
2022-12-31T04:31:27.540Z,15.99
2022-12-31T04:32:27.720Z,16.01
2022-12-31T04:33:28.093Z,16.03
2022-12-31T04:34:28.297Z,16.06
2022-12-31T04:35:28.983Z,16.07
2022-12-31T04:36:28.831Z,16.07
2022-12-31T04:37:29.228Z,16.11
2022-12-31T04:38:29.516Z,16.16
2022-12-31T04:39:29.847Z,16.22
2022-12-31T04:40:30.177Z,16.25
2022-12-31T04:41:30.462Z,16.26
2022-12-31T04:42:30.752Z,16.26
2022-12-31T04:43:30.970Z,16.22
2022-12-31T04:44:31.281Z,16.23
2022-12-31T04:45:31.652Z,16.26
2022-12-31T04:46:31.919Z,16.27
2022-12-31T04:47:32.223Z,16.30
2022-12-31T04:48:32.528Z,16.27
2022-12-31T04:49:32.865Z,16.33
2022-12-31T04:50:33.076Z,16.35
2022-12-31T04:51:33.383Z,16.31
2022-12-31T04:52:38.791Z,16.33
2022-12-31T04:53:35.015Z,16.34
2022-12-31T04:54:35.405Z,16.37
2022-12-31T04:55:34.489Z,16.35
2022-12-31T04:56:34.693Z,16.33
2022-12-31T04:57:35.005Z,16.33
2022-12-31T04:58:35.325Z,16.31
2022-12-31T04:59:35.626Z,16.31
2022-12-31T05:00:35.979Z,16.33
2022-12-31T05:01:36.375Z,16.31
2022-12-31T05:02:36.712Z,16.35
2022-12-31T05:03:36.888Z,16.34
2022-12-31T05:04:37.051Z,16.33
2022-12-31T05:05:37.415Z,16.37
2022-12-31T05:06:37.793Z,16.40
2022-12-31T05:07:38.016Z,16.40
2022-12-31T05:08:38.303Z,16.42
2022-12-31T05:09:38.648Z,16.38
2022-12-31T05:10:38.941Z,16.42
2022-12-31T05:11:39.252Z,16.45
2022-12-31T05:12:39.566Z,16.45
2022-12-31T05:13:39.836Z,16.48
2022-12-31T05:14:40.128Z,16.50
2022-12-31T05:15:40.488Z,16.52
2022-12-31T05:16:40.701Z,16.58
2022-12-31T05:17:41.009Z,16.60
2022-12-31T05:18:41.303Z,16.68
2022-12-31T05:19:41.579Z,16.70
2022-12-31T05:20:41.879Z,16.71
2022-12-31T05:21:42.233Z,16.71
2022-12-31T05:22:42.516Z,16.70
2022-12-31T05:23:42.822Z,16.68
2022-12-31T05:24:43.104Z,16.70
2022-12-31T05:25:43.467Z,16.67
2022-12-31T05:26:43.738Z,16.68
2022-12-31T05:27:44.053Z,16.73
2022-12-31T05:28:44.332Z,16.73
2022-12-31T05:29:44.717Z,16.74
2022-12-31T05:30:44.970Z,16.73
2022-12-31T05:31:45.303Z,16.71
2022-12-31T05:32:45.607Z,16.71
2022-12-31T05:33:45.913Z,16.67
2022-12-31T05:34:46.215Z,16.67
2022-12-31T05:35:46.553Z,16.67
2022-12-31T05:36:46.804Z,16.63
2022-12-31T05:37:47.081Z,16.65
2022-12-31T05:38:47.316Z,16.65
2022-12-31T05:39:47.626Z,16.65
2022-12-31T05:40:47.940Z,16.65
2022-12-31T05:41:48.246Z,16.65
2022-12-31T05:42:48.521Z,16.62
2022-12-31T05:43:48.781Z,16.65
2022-12-31T05:44:49.086Z,16.63
2022-12-31T05:45:49.396Z,16.65
2022-12-31T05:46:49.582Z,16.70
2022-12-31T05:47:49.920Z,16.71
2022-12-31T05:48:50.220Z,16.75
2022-12-31T05:49:50.534Z,16.75
2022-12-31T05:50:50.806Z,16.75
2022-12-31T05:51:51.127Z,16.71
2022-12-31T05:52:51.414Z,16.71
2022-12-31T05:53:51.795Z,16.74
2022-12-31T05:54:52.088Z,16.75
2022-12-31T05:55:52.401Z,16.75
2022-12-31T05:56:52.675Z,16.75
2022-12-31T05:57:52.961Z,16.74
2022-12-31T05:58:53.282Z,16.74
2022-12-31T05:59:53.567Z,16.78
2022-12-31T06:00:53.828Z,16.78
2022-12-31T06:01:54.167Z,16.77
2022-12-31T06:02:54.379Z,16.75
2022-12-31T06:03:54.716Z,16.75
2022-12-31T06:04:54.961Z,16.77
2022-12-31T06:05:55.166Z,16.77
2022-12-31T06:06:55.484Z,16.78
2022-12-31T06:07:55.779Z,16.85
2022-12-31T06:08:56.062Z,16.88
2022-12-31T06:09:56.333Z,16.90
2022-12-31T06:10:56.618Z,16.90
2022-12-31T06:11:56.941Z,16.90
2022-12-31T06:12:57.271Z,16.89
2022-12-31T06:13:57.569Z,16.81
2022-12-31T06:14:57.880Z,16.78
2022-12-31T06:15:58.121Z,16.78
2022-12-31T06:16:58.514Z,16.75
2022-12-31T06:17:58.741Z,16.71
2022-12-31T06:18:58.992Z,16.73
2022-12-31T06:19:59.335Z,16.68
2022-12-31T06:20:59.599Z,16.67
2022-12-31T06:21:59.934Z,16.70
2022-12-31T06:23:00.248Z,16.65
2022-12-31T06:24:00.563Z,16.63
2022-12-31T06:25:00.861Z,16.62
2022-12-31T06:26:01.172Z,16.62
2022-12-31T06:27:01.495Z,16.59
2022-12-31T06:28:01.675Z,16.55
2022-12-31T06:29:02.024Z,16.58
2022-12-31T06:30:02.274Z,16.56
2022-12-31T06:31:02.619Z,16.56
2022-12-31T06:32:02.954Z,16.55
2022-12-31T06:33:03.227Z,16.53
2022-12-31T06:34:03.602Z,16.55
2022-12-31T06:35:03.884Z,16.50
2022-12-31T06:36:04.209Z,16.53
2022-12-31T06:37:04.410Z,16.52
2022-12-31T06:38:04.774Z,16.49
2022-12-31T06:39:05.041Z,16.50
2022-12-31T06:40:05.375Z,16.50
2022-12-31T06:41:05.592Z,16.50
2022-12-31T06:42:05.893Z,16.50
2022-12-31T06:43:06.163Z,16.49
2022-12-31T06:44:06.505Z,16.48
2022-12-31T06:45:06.758Z,16.41
2022-12-31T06:46:07.152Z,16.40
2022-12-31T06:47:07.364Z,16.40
2022-12-31T06:48:07.672Z,16.38
2022-12-31T06:49:07.990Z,16.42
2022-12-31T06:50:08.326Z,16.45
2022-12-31T06:51:13.414Z,16.50
2022-12-31T06:52:09.786Z,16.52
2022-12-31T06:53:09.085Z,16.52
2022-12-31T06:54:09.443Z,16.50
2022-12-31T06:55:09.637Z,16.50
2022-12-31T06:56:09.814Z,16.45
2022-12-31T06:57:10.175Z,16.45
2022-12-31T06:58:10.383Z,16.44
2022-12-31T06:59:10.756Z,16.48
2022-12-31T07:00:11.237Z,16.45
2022-12-31T07:01:11.409Z,16.41
2022-12-31T07:02:11.742Z,16.40
2022-12-31T07:03:11.953Z,16.40
2022-12-31T07:04:12.177Z,16.38
2022-12-31T07:05:12.585Z,16.41
2022-12-31T07:06:12.872Z,16.38
2022-12-31T07:07:13.060Z,16.37
2022-12-31T07:08:13.404Z,16.41
2022-12-31T07:09:13.657Z,16.41
2022-12-31T07:10:13.891Z,16.41
2022-12-31T07:11:14.093Z,16.41
2022-12-31T07:12:14.433Z,16.44
2022-12-31T07:13:14.842Z,16.41
2022-12-31T07:14:15.089Z,16.44
2022-12-31T07:15:15.353Z,16.44
2022-12-31T07:16:15.790Z,16.44
2022-12-31T07:17:15.986Z,16.44
2022-12-31T07:18:16.330Z,16.42
2022-12-31T07:19:16.599Z,16.41
2022-12-31T07:20:16.833Z,16.40
2022-12-31T07:21:17.042Z,16.40
2022-12-31T07:22:17.413Z,16.35
2022-12-31T07:23:17.658Z,16.34
2022-12-31T07:24:17.951Z,16.31
2022-12-31T07:25:18.205Z,16.23
2022-12-31T07:26:18.461Z,16.27
2022-12-31T07:27:18.687Z,16.23
2022-12-31T07:28:18.961Z,16.23
2022-12-31T07:29:19.210Z,16.20
2022-12-31T07:30:19.452Z,16.22
2022-12-31T07:31:19.680Z,16.22
2022-12-31T07:32:20.087Z,16.18
2022-12-31T07:33:20.266Z,16.16
2022-12-31T07:34:20.691Z,16.12
2022-12-31T07:35:20.847Z,16.12
2022-12-31T07:36:21.211Z,16.14
2022-12-31T07:37:21.455Z,16.12
2022-12-31T07:38:21.711Z,16.12
2022-12-31T07:39:21.950Z,16.15
2022-12-31T07:40:22.226Z,16.11
2022-12-31T07:41:22.466Z,16.11
2022-12-31T07:42:22.687Z,16.09
2022-12-31T07:43:22.920Z,16.04
2022-12-31T07:44:23.240Z,16.03
2022-12-31T07:45:23.453Z,15.97
2022-12-31T07:46:23.700Z,15.94
2022-12-31T07:47:23.962Z,15.93
2022-12-31T07:48:24.332Z,15.96
2022-12-31T07:49:24.506Z,15.94
2022-12-31T07:50:25.695Z,15.93
2022-12-31T07:51:25.127Z,15.92
2022-12-31T07:52:25.483Z,15.92
2022-12-31T07:53:26.401Z,15.89
2022-12-31T07:54:26.184Z,15.88
2022-12-31T07:55:26.338Z,15.89
2022-12-31T07:56:26.749Z,15.88
2022-12-31T07:57:27.062Z,15.88
2022-12-31T07:58:28.156Z,15.88
2022-12-31T07:59:27.597Z,15.92
2022-12-31T08:00:27.818Z,15.88
2022-12-31T08:01:28.163Z,15.85
2022-12-31T08:02:28.365Z,15.85
2022-12-31T08:03:28.545Z,15.84
2022-12-31T08:04:28.934Z,15.86
2022-12-31T08:05:29.167Z,15.85
2022-12-31T08:06:29.421Z,15.86
2022-12-31T08:07:29.677Z,15.88
2022-12-31T08:08:29.955Z,15.88
2022-12-31T08:09:30.200Z,15.82
2022-12-31T08:10:30.468Z,15.82
2022-12-31T08:11:30.692Z,15.82
2022-12-31T08:12:30.955Z,15.85
2022-12-31T08:13:31.227Z,15.89
2022-12-31T08:14:31.472Z,15.88
2022-12-31T08:15:31.695Z,15.81
2022-12-31T08:16:32.125Z,15.82
2022-12-31T08:17:32.333Z,15.84
2022-12-31T08:18:32.556Z,15.82
2022-12-31T08:19:32.927Z,15.82
2022-12-31T08:20:33.135Z,15.85
2022-12-31T08:21:35.186Z,15.88
2022-12-31T08:22:33.632Z,15.88
2022-12-31T08:23:33.898Z,15.85
2022-12-31T08:24:34.196Z,15.85
2022-12-31T08:25:34.391Z,15.85
2022-12-31T08:26:34.675Z,15.85
2022-12-31T08:27:34.873Z,15.85
2022-12-31T08:28:35.264Z,15.86
2022-12-31T08:29:35.515Z,15.88
2022-12-31T08:30:35.821Z,15.89
2022-12-31T08:31:36.166Z,15.88
2022-12-31T08:32:36.397Z,15.86
2022-12-31T08:33:36.632Z,15.86
2022-12-31T08:34:36.876Z,15.89
2022-12-31T08:35:37.183Z,15.88
2022-12-31T08:36:37.393Z,15.88
2022-12-31T08:37:37.597Z,15.89
2022-12-31T08:38:37.978Z,15.94
2022-12-31T08:39:38.219Z,15.94
2022-12-31T08:40:39.464Z,15.94
2022-12-31T08:41:42.715Z,15.96
2022-12-31T08:42:39.119Z,16.00
2022-12-31T08:43:39.361Z,16.00
2022-12-31T08:44:39.645Z,16.09
2022-12-31T08:45:39.958Z,16.07
2022-12-31T08:46:40.155Z,16.06
2022-12-31T08:47:40.368Z,16.06
2022-12-31T08:48:40.729Z,16.09
2022-12-31T08:49:41.479Z,16.11
2022-12-31T08:50:41.312Z,16.12
2022-12-31T08:51:41.557Z,16.12
2022-12-31T08:52:41.824Z,16.16
2022-12-31T08:53:42.097Z,16.14
2022-12-31T08:54:42.360Z,16.12
2022-12-31T08:55:42.588Z,16.11
2022-12-31T08:56:48.806Z,16.12
2022-12-31T08:57:44.292Z,16.14
2022-12-31T08:58:43.475Z,16.16
2022-12-31T08:59:43.681Z,16.18
2022-12-31T09:00:44.094Z,16.22
2022-12-31T09:01:44.708Z,16.22
2022-12-31T09:02:48.065Z,16.25
2022-12-31T09:03:44.995Z,16.26
2022-12-31T09:04:45.156Z,16.27
2022-12-31T09:05:45.442Z,16.31
2022-12-31T09:06:45.749Z,16.25
2022-12-31T09:07:46.012Z,16.23
2022-12-31T09:08:46.303Z,16.18
2022-12-31T09:09:46.484Z,16.20
2022-12-31T09:10:46.855Z,16.14
2022-12-31T09:11:47.138Z,16.14
2022-12-31T09:12:47.474Z,16.14
2022-12-31T09:13:47.700Z,16.15
2022-12-31T09:14:47.962Z,16.18
2022-12-31T09:15:48.220Z,16.22
2022-12-31T09:16:48.553Z,16.22
2022-12-31T09:17:48.756Z,16.23
2022-12-31T09:18:49.199Z,16.26
2022-12-31T09:19:49.406Z,16.26
2022-12-31T09:20:49.683Z,16.26
2022-12-31T09:21:49.915Z,16.26
2022-12-31T09:22:50.150Z,16.30
2022-12-31T09:23:50.488Z,16.27
2022-12-31T09:24:50.763Z,16.31
2022-12-31T09:25:50.947Z,16.34
2022-12-31T09:26:51.212Z,16.37
2022-12-31T09:27:51.478Z,16.40
2022-12-31T09:28:51.688Z,16.45
2022-12-31T09:29:51.980Z,16.42
2022-12-31T09:30:52.258Z,16.44
2022-12-31T09:31:52.601Z,16.49
2022-12-31T09:32:58.610Z,16.52
2022-12-31T09:33:54.158Z,16.53
2022-12-31T09:34:53.423Z,16.50
2022-12-31T09:35:54.209Z,16.55
2022-12-31T09:36:53.943Z,16.58
2022-12-31T09:37:54.136Z,16.58
2022-12-31T09:38:54.427Z,16.62
2022-12-31T09:39:54.661Z,16.65
2022-12-31T09:40:54.972Z,16.63
2022-12-31T09:41:55.227Z,16.67
2022-12-31T09:42:55.491Z,16.73
2022-12-31T09:44:00.740Z,16.75
2022-12-31T09:44:57.048Z,16.75
2022-12-31T09:45:56.349Z,16.75
2022-12-31T09:46:56.587Z,16.75
2022-12-31T09:47:56.807Z,16.80
2022-12-31T09:48:57.204Z,16.75
2022-12-31T09:49:57.478Z,16.68
2022-12-31T09:50:57.739Z,16.74
2022-12-31T09:51:57.998Z,16.74
2022-12-31T09:52:58.297Z,16.73
2022-12-31T09:53:58.557Z,16.74
2022-12-31T09:54:58.824Z,16.74
2022-12-31T09:55:59.217Z,16.71
2022-12-31T09:56:59.542Z,16.67
2022-12-31T09:57:59.596Z,16.67
2022-12-31T09:58:59.865Z,16.67
2022-12-31T10:00:00.184Z,16.68
2022-12-31T10:01:00.603Z,16.68
2022-12-31T10:02:00.872Z,16.71
2022-12-31T10:03:01.086Z,16.68
2022-12-31T10:04:01.228Z,16.70
2022-12-31T10:05:03.353Z,16.68
2022-12-31T10:06:01.744Z,16.73
2022-12-31T10:07:02.025Z,16.68
2022-12-31T10:08:02.308Z,16.70
2022-12-31T10:09:02.574Z,16.74
2022-12-31T10:10:02.815Z,16.74
2022-12-31T10:11:03.089Z,16.74
2022-12-31T10:12:03.338Z,16.77
2022-12-31T10:13:03.638Z,16.75
2022-12-31T10:14:03.850Z,16.81
2022-12-31T10:15:04.248Z,16.86
2022-12-31T10:16:04.449Z,16.90
2022-12-31T10:17:04.764Z,16.95
2022-12-31T10:18:04.999Z,17.04
2022-12-31T10:19:05.300Z,17.08
2022-12-31T10:20:05.503Z,17.14
2022-12-31T10:21:05.843Z,17.25
2022-12-31T10:22:06.053Z,17.22
2022-12-31T10:23:06.299Z,17.32
2022-12-31T10:24:06.540Z,17.33
2022-12-31T10:25:06.844Z,17.38
2022-12-31T10:26:07.075Z,17.44
2022-12-31T10:27:07.323Z,17.44
2022-12-31T10:28:07.576Z,17.48
2022-12-31T10:29:08.179Z,17.51
2022-12-31T10:30:08.327Z,17.54
2022-12-31T10:31:08.584Z,17.57
2022-12-31T10:32:08.779Z,17.62
2022-12-31T10:33:09.108Z,17.63
2022-12-31T10:34:09.209Z,17.64
2022-12-31T10:35:09.535Z,17.63
2022-12-31T10:36:09.747Z,17.66
2022-12-31T10:37:10.005Z,17.69
2022-12-31T10:38:10.299Z,17.74
2022-12-31T10:39:14.398Z,17.79
2022-12-31T10:40:11.890Z,17.79
2022-12-31T10:41:11.092Z,17.78
2022-12-31T10:42:11.387Z,17.85
2022-12-31T10:43:11.643Z,17.89
2022-12-31T10:44:11.880Z,17.92
2022-12-31T10:45:12.198Z,17.92
2022-12-31T10:46:16.278Z,17.97
2022-12-31T10:47:14.205Z,18.03
2022-12-31T10:48:13.021Z,18.04
2022-12-31T10:49:13.315Z,18.10
2022-12-31T10:50:13.591Z,18.18
2022-12-31T10:51:13.831Z,18.25
2022-12-31T10:52:14.162Z,18.29
2022-12-31T10:53:14.402Z,18.34
2022-12-31T10:54:14.645Z,18.28
2022-12-31T10:55:14.973Z,18.28
2022-12-31T10:56:15.208Z,18.33
2022-12-31T10:57:15.510Z,18.36
2022-12-31T10:58:15.734Z,18.39
2022-12-31T10:59:16.128Z,18.44
2022-12-31T11:00:16.269Z,18.43
2022-12-31T11:01:16.547Z,18.44
2022-12-31T11:02:16.869Z,18.50
2022-12-31T11:03:17.058Z,18.55
2022-12-31T11:04:17.249Z,18.62
2022-12-31T11:05:17.668Z,18.59
2022-12-31T11:06:18.225Z,18.61
2022-12-31T11:07:18.281Z,18.64
2022-12-31T11:08:18.537Z,18.67
2022-12-31T11:09:18.822Z,18.68
2022-12-31T11:10:19.058Z,18.67
2022-12-31T11:11:19.289Z,18.76
2022-12-31T11:12:19.539Z,18.79
2022-12-31T11:13:19.843Z,18.87
2022-12-31T11:14:20.055Z,18.94
2022-12-31T11:15:20.412Z,19.01
2022-12-31T11:16:20.685Z,19.10
2022-12-31T11:17:20.932Z,19.11
2022-12-31T11:18:21.212Z,19.08
2022-12-31T11:19:21.963Z,19.14
2022-12-31T11:20:21.810Z,19.25
2022-12-31T11:21:27.986Z,19.40
2022-12-31T11:22:23.321Z,19.46
2022-12-31T11:23:22.695Z,19.40
2022-12-31T11:24:23.492Z,19.46
2022-12-31T11:25:23.435Z,19.43
2022-12-31T11:26:23.799Z,19.43
2022-12-31T11:27:23.791Z,19.36
2022-12-31T11:28:24.059Z,19.29
2022-12-31T11:29:25.303Z,19.17
2022-12-31T11:30:24.533Z,19.18
2022-12-31T11:31:24.877Z,19.15
2022-12-31T11:32:25.074Z,19.06
2022-12-31T11:33:25.342Z,19.08
2022-12-31T11:34:25.610Z,19.06
2022-12-31T11:35:25.867Z,19.05
2022-12-31T11:36:26.102Z,19.05
2022-12-31T11:37:27.309Z,19.10
2022-12-31T11:38:27.622Z,19.01
2022-12-31T11:39:31.003Z,19.01
2022-12-31T11:40:27.235Z,18.91
2022-12-31T11:41:27.416Z,18.91
2022-12-31T11:42:27.643Z,18.92
2022-12-31T11:43:28.007Z,18.92
2022-12-31T11:44:28.313Z,18.91
2022-12-31T11:45:28.611Z,18.94
2022-12-31T11:46:28.857Z,18.97
2022-12-31T11:47:29.158Z,19.02
2022-12-31T11:48:31.061Z,19.02
2022-12-31T11:49:29.860Z,18.99
2022-12-31T11:50:29.973Z,19.10
2022-12-31T11:51:30.295Z,19.11
2022-12-31T11:52:30.535Z,19.13
2022-12-31T11:53:30.764Z,19.05
2022-12-31T11:54:30.989Z,19.02
2022-12-31T11:55:31.352Z,18.99
2022-12-31T11:56:31.627Z,18.94
2022-12-31T11:57:32.077Z,18.94
2022-12-31T11:58:32.077Z,18.98
2022-12-31T11:59:32.423Z,19.01
2022-12-31T12:00:32.708Z,19.02
2022-12-31T12:01:33.008Z,19.11
2022-12-31T12:02:33.343Z,19.21
2022-12-31T12:03:33.620Z,19.15
2022-12-31T12:04:33.988Z,19.18
2022-12-31T12:05:34.444Z,19.18
2022-12-31T12:06:34.466Z,19.20
2022-12-31T12:07:36.132Z,19.17
2022-12-31T12:08:35.040Z,19.15
2022-12-31T12:09:35.415Z,19.20
2022-12-31T12:10:36.948Z,19.21
2022-12-31T12:11:36.041Z,19.24
2022-12-31T12:12:36.268Z,19.25
2022-12-31T12:13:36.557Z,19.31
2022-12-31T12:14:36.914Z,19.48
2022-12-31T12:15:37.111Z,19.63
2022-12-31T12:16:37.420Z,19.76
2022-12-31T12:17:37.653Z,19.87
2022-12-31T12:18:37.914Z,19.98
2022-12-31T12:19:38.273Z,20.03
2022-12-31T12:20:38.511Z,20.06
2022-12-31T12:21:38.751Z,20.13
2022-12-31T12:22:39.060Z,20.24
2022-12-31T12:23:39.317Z,20.30
2022-12-31T12:24:39.632Z,20.33
2022-12-31T12:25:39.860Z,20.35
2022-12-31T12:26:40.106Z,20.35
2022-12-31T12:27:40.382Z,20.31
2022-12-31T12:28:44.157Z,20.24
2022-12-31T12:29:40.922Z,20.25
2022-12-31T12:30:41.163Z,20.28
2022-12-31T12:31:41.921Z,20.27
2022-12-31T12:32:41.760Z,20.30
2022-12-31T12:33:43.252Z,20.23
2022-12-31T12:34:49.166Z,20.24
2022-12-31T12:35:43.445Z,20.21
2022-12-31T12:36:42.765Z,20.28
2022-12-31T12:37:43.075Z,20.39
2022-12-31T12:38:43.309Z,20.53
2022-12-31T12:39:43.732Z,20.66
2022-12-31T12:40:43.879Z,20.72
2022-12-31T12:41:44.097Z,20.83
2022-12-31T12:42:44.345Z,20.87
2022-12-31T12:43:44.699Z,20.91
2022-12-31T12:44:45.414Z,20.72
2022-12-31T12:45:51.481Z,20.76
2022-12-31T12:46:48.521Z,20.79
2022-12-31T12:47:45.823Z,20.81
2022-12-31T12:48:46.133Z,20.81
2022-12-31T12:49:46.840Z,20.95
2022-12-31T12:50:46.723Z,21.04
2022-12-31T12:51:47.018Z,21.14
2022-12-31T12:52:47.296Z,21.23
2022-12-31T12:53:47.514Z,21.30
2022-12-31T12:54:47.768Z,21.38
2022-12-31T12:55:48.193Z,21.21
2022-12-31T12:56:48.391Z,21.04